Time;durP1;ratioP1;P1;durP2;ratioP2;P2;SDS_P1;SDS_P2;PMS_P1;PMS_P2;Temp;Humidity;BMP_temperature;BMP_pressure;BME280_temperature;BME280_humidity;BME280_pressure;Samples;Min_cycle;Max_cycle;Signal;HPM_P1;HPM_P2
2021/03/04 00:00:59;;;;;;;46.33;24.90;;;7.80;61.20;;;;;;5034970;28;20033;-72
2021/03/04 00:03:25;;;;;;;47.83;25.52;;;7.80;61.10;;;;;;5034180;28;20032;-72
2021/03/04 00:05:50;;;;;;;47.10;25.92;;;7.70;61.20;;;;;;5030321;28;20112;-72
2021/03/04 00:08:16;;;;;;;46.83;23.75;;;7.80;61.30;;;;;;5033179;28;20030;-72
2021/03/04 00:10:42;;;;;;;50.03;24.45;;;7.70;61.20;;;;;;5034263;28;20088;-73
2021/03/04 00:13:08;;;;;;;42.75;23.63;;;7.70;61.20;;;;;;5034560;28;20099;-72
2021/03/04 00:15:34;;;;;;;50.85;24.33;;;7.70;61.20;;;;;;5021009;28;20045;-72
2021/03/04 00:18:00;;;;;;;44.10;24.83;;;7.70;61.20;;;;;;5034732;28;20029;-73
2021/03/04 00:20:29;;;;;;;46.45;24.63;;;7.70;61.30;;;;;;5034596;28;20397;-72
2021/03/04 00:22:55;;;;;;;45.83;24.08;;;7.70;61.30;;;;;;5033060;28;20046;-73
2021/03/04 00:25:22;;;;;;;50.70;25.63;;;7.70;61.40;;;;;;5034494;28;20065;-72
2021/03/04 00:27:48;;;;;;;51.05;24.70;;;7.60;61.40;;;;;;5020747;28;20475;-72
2021/03/04 00:30:17;;;;;;;54.78;28.80;;;7.70;61.50;;;;;;5014711;28;20056;-73
2021/03/04 00:32:43;;;;;;;49.97;26.90;;;7.70;61.50;;;;;;5014540;28;20032;-72
2021/03/04 00:35:09;;;;;;;49.97;26.40;;;7.70;61.40;;;;;;5023381;28;20030;-72
2021/03/04 00:37:36;;;;;;;50.45;27.30;;;7.60;61.40;;;;;;5032977;28;20438;-72
2021/03/04 00:40:10;;;;;;;43.40;23.27;;;7.60;61.50;;;;;;5034298;28;20026;-73
2021/03/04 00:42:36;;;;;;;50.47;24.85;;;7.60;61.50;;;;;;5032878;28;20022;-72
2021/03/04 00:45:11;;;;;;;43.85;23.33;;;7.60;61.50;;;;;;5033880;28;20090;-73
2021/03/04 00:47:37;;;;;;;45.42;23.60;;;7.60;61.50;;;;;;5034100;28;20021;-72
2021/03/04 00:50:05;;;;;;;44.78;22.98;;;7.50;61.50;;;;;;5034049;28;20032;-72
2021/03/04 00:52:31;;;;;;;48.90;24.98;;;7.60;61.50;;;;;;5032648;28;20032;-72
2021/03/04 00:54:56;;;;;;;47.15;25.48;;;7.50;61.50;;;;;;5033689;28;20025;-73
2021/03/04 00:57:22;;;;;;;44.55;23.38;;;7.60;61.60;;;;;;5033912;28;20033;-73
2021/03/04 00:59:48;;;;;;;43.20;22.40;;;7.60;61.60;;;;;;5032263;28;20092;-72
2021/03/04 01:02:14;;;;;;;42.88;21.02;;;7.50;61.60;;;;;;5033725;28;20383;-72
2021/03/04 01:04:40;;;;;;;45.33;23.90;;;7.50;61.60;;;;;;5032770;28;20021;-72
2021/03/04 01:07:05;;;;;;;47.85;23.48;;;7.50;61.70;;;;;;5033704;28;20045;-72
2021/03/04 01:09:31;;;;;;;52.67;27.02;;;7.50;61.70;;;;;;5033708;28;20049;-73
2021/03/04 01:11:57;;;;;;;48.08;25.17;;;7.50;61.80;;;;;;5033298;28;20383;-72
2021/03/04 01:14:23;;;;;;;44.40;24.63;;;7.50;61.90;;;;;;5033341;28;20483;-73
2021/03/04 01:16:49;;;;;;;47.65;24.73;;;7.50;61.90;;;;;;5033562;28;20108;-72
2021/03/04 01:19:15;;;;;;;43.60;24.08;;;7.50;61.90;;;;;;5033453;28;20160;-72
2021/03/04 01:21:40;;;;;;;41.92;22.73;;;7.50;61.90;;;;;;5033301;28;20017;-73
2021/03/04 01:24:07;;;;;;;42.97;22.42;;;7.50;61.90;;;;;;5036039;28;20176;-73
2021/03/04 01:26:33;;;;;;;52.50;27.10;;;7.50;61.80;;;;;;5030232;28;20014;-72
2021/03/04 01:28:59;;;;;;;55.38;29.17;;;7.50;61.90;;;;;;5013881;28;20026;-72
2021/03/04 01:31:25;;;;;;;40.55;22.65;;;7.50;62.00;;;;;;5013536;28;20080;-73
2021/03/04 01:33:51;;;;;;;45.97;23.27;;;7.50;61.90;;;;;;5018740;28;20026;-73
2021/03/04 01:36:16;;;;;;;40.78;22.42;;;7.50;62.00;;;;;;5031576;28;20033;-72
2021/03/04 01:38:42;;;;;;;39.20;20.88;;;7.50;61.90;;;;;;5032941;28;20536;-73
2021/03/04 01:41:08;;;;;;;44.15;23.23;;;7.50;61.90;;;;;;5032951;28;20030;-73
2021/03/04 01:43:34;;;;;;;45.35;23.27;;;7.50;62.00;;;;;;5032461;28;20029;-72
2021/03/04 01:45:59;;;;;;;41.45;21.38;;;7.50;61.90;;;;;;5032865;28;20105;-72
2021/03/04 01:48:25;;;;;;;44.53;23.23;;;7.50;61.90;;;;;;5032803;28;20021;-72
2021/03/04 01:50:51;;;;;;;43.50;23.90;;;7.50;61.90;;;;;;5032582;28;20021;-73
2021/03/04 01:53:17;;;;;;;44.80;22.75;;;7.40;61.80;;;;;;5032533;28;20382;-73
2021/03/04 01:55:44;;;;;;;50.90;26.60;;;7.40;61.80;;;;;;5014476;28;20372;-72
2021/03/04 01:58:10;;;;;;;50.38;25.63;;;7.40;62.00;;;;;;5031193;28;20437;-73
2021/03/04 02:03:58;;;;;;;46.00;25.25;;;7.40;62.10;;;;;;5019473;28;20040;-73
2021/03/04 02:06:33;;;;;;;48.00;26.00;;;7.40;61.90;;;;;;5032344;28;20018;-72
2021/03/04 02:09:02;;;;;;;47.70;25.00;;;7.40;62.00;;;;;;5015018;28;20021;-72
2021/03/04 02:11:35;;;;;;;45.83;24.33;;;7.40;61.90;;;;;;5032231;28;20022;-72
2021/03/04 02:14:10;;;;;;;37.08;22.17;;;7.40;62.00;;;;;;5031840;28;20021;-72
2021/03/04 02:16:44;;;;;;;48.28;23.85;;;7.40;62.10;;;;;;5031947;28;20037;-72
2021/03/04 02:19:38;;;;;;;43.10;22.13;;;7.30;61.90;;;;;;5032351;28;20075;-73
2021/03/04 02:22:23;;;;;;;;;;;7.40;62.10;;;;;;4989911;28;20068;-73
2021/03/04 02:25:11;;;;;;;46.35;23.08;;;7.40;61.80;;;;;;5031684;28;19905;-72
2021/03/04 02:27:38;;;;;;;45.13;23.33;;;7.40;61.70;;;;;;5010495;28;20372;-72
2021/03/04 02:30:07;;;;;;;44.88;24.13;;;7.40;61.80;;;;;;5024636;28;20022;-72
2021/03/04 02:32:37;;;;;;;39.80;21.38;;;7.30;61.90;;;;;;5031821;28;20506;-73
2021/03/04 02:35:34;;;;;;;48.67;24.70;;;7.30;61.90;;;;;;5031556;28;20426;-73
2021/03/04 02:38:07;;;;;;;44.15;23.70;;;7.30;62.10;;;;;;5031136;28;20079;-72
2021/03/04 02:40:34;;;;;;;45.80;24.52;;;7.30;61.90;;;;;;5031427;28;20397;-73
2021/03/04 02:43:03;;;;;;;46.78;24.15;;;7.30;62.00;;;;;;5031549;28;20033;-72
2021/03/04 02:45:30;;;;;;;53.92;26.70;;;7.30;62.00;;;;;;5031142;28;20013;-72
2021/03/04 02:47:56;;;;;;;43.58;23.48;;;7.30;62.80;;;;;;5031685;28;20021;-72
2021/03/04 02:50:23;;;;;;;46.38;22.88;;;7.30;62.10;;;;;;5031753;28;20104;-73
2021/03/04 02:52:50;;;;;;;39.00;21.15;;;7.30;62.20;;;;;;5031721;28;20021;-73
2021/03/04 02:55:17;;;;;;;41.90;21.35;;;7.30;62.20;;;;;;5024456;28;20113;-72
2021/03/04 02:57:47;;;;;;;46.40;22.70;;;7.30;62.30;;;;;;5032142;28;20026;-72
2021/03/04 03:00:16;;;;;;;47.28;25.13;;;7.30;63.10;;;;;;4993160;28;20035;-72
2021/03/04 03:02:44;;;;;;;46.92;24.30;;;7.30;62.30;;;;;;4991829;28;20066;-72
2021/03/04 03:05:13;;;;;;;38.78;21.83;;;7.30;62.30;;;;;;4992868;28;20546;-72
2021/03/04 03:07:43;;;;;;;36.05;19.92;;;7.30;62.20;;;;;;4994567;28;20110;-71
2021/03/04 03:10:13;;;;;;;48.83;25.88;;;7.30;62.20;;;;;;4997035;28;20492;-72
2021/03/04 03:12:43;;;;;;;45.72;25.55;;;7.30;62.20;;;;;;4995488;28;20408;-72
2021/03/04 03:15:14;;;;;;;47.80;24.40;;;7.30;62.20;;;;;;4996700;28;20038;-72
2021/03/04 03:17:40;;;;;;;40.30;21.70;;;7.30;62.20;;;;;;4996885;28;20030;-72
2021/03/04 03:20:13;;;;;;;48.42;22.90;;;7.30;62.20;;;;;;4996752;28;20093;-72
2021/03/04 03:22:39;;;;;;;49.80;24.52;;;7.30;62.30;;;;;;4996644;28;20050;-72
2021/03/04 03:25:07;;;;;;;44.80;23.08;;;7.30;62.30;;;;;;4996163;28;20068;-72
2021/03/04 03:27:33;;;;;;;48.13;26.60;;;7.20;62.30;;;;;;4996597;28;20022;-72
2021/03/04 03:30:01;;;;;;;48.97;25.33;;;7.30;62.40;;;;;;4985059;28;20102;-72
2021/03/04 03:32:31;;;;;;;51.10;25.73;;;7.30;62.40;;;;;;4977127;28;20023;-72
2021/03/04 03:34:58;;;;;;;47.65;24.73;;;7.20;62.40;;;;;;5006645;28;20430;-72
2021/03/04 03:37:25;;;;;;;49.92;24.67;;;7.30;62.50;;;;;;4995261;28;20129;-72
2021/03/04 03:39:52;;;;;;;45.20;23.88;;;7.20;62.50;;;;;;5011563;28;20031;-73
2021/03/04 03:42:19;;;;;;;43.08;23.77;;;7.20;62.40;;;;;;4996300;28;20121;-72
2021/03/04 03:44:47;;;;;;;42.97;21.90;;;7.20;62.40;;;;;;4996111;28;20018;-72
2021/03/04 03:47:14;;;;;;;34.58;19.40;;;7.30;62.50;;;;;;4995938;28;20030;-73
2021/03/04 03:49:41;;;;;;;46.58;23.70;;;7.20;62.50;;;;;;4996333;28;20062;-71
2021/03/04 03:52:08;;;;;;;41.55;23.27;;;7.30;62.60;;;;;;4996261;28;20022;-72
2021/03/04 03:54:34;;;;;;;43.28;21.83;;;7.30;62.70;;;;;;4996029;28;20019;-72
2021/03/04 03:57:01;;;;;;;44.00;23.70;;;7.30;62.70;;;;;;4993612;28;20384;-72
2021/03/04 03:59:27;;;;;;;47.63;25.50;;;7.30;62.70;;;;;;5021141;28;20568;-72
2021/03/04 04:01:53;;;;;;;49.00;25.20;;;7.30;62.80;;;;;;5034383;28;20390;-73
2021/03/04 04:04:20;;;;;;;53.22;27.42;;;7.30;62.90;;;;;;5034104;28;20030;-73
2021/03/04 04:06:47;;;;;;;49.97;27.27;;;7.30;63.00;;;;;;5034306;28;20022;-73
2021/03/04 04:09:14;;;;;;;41.72;23.15;;;7.30;63.10;;;;;;5034392;28;20021;-72
2021/03/04 04:11:39;;;;;;;44.08;24.77;;;7.30;63.10;;;;;;5034383;28;20017;-72
2021/03/04 04:14:05;;;;;;;46.03;25.45;;;7.30;63.00;;;;;;5034098;28;20036;-72
2021/03/04 04:16:31;;;;;;;44.65;24.73;;;7.30;62.90;;;;;;5033696;28;20048;-72
2021/03/04 04:18:57;;;;;;;44.38;23.80;;;7.30;62.80;;;;;;5016082;28;20035;-72
2021/03/04 04:21:24;;;;;;;42.85;23.20;;;7.30;63.70;;;;;;5034083;28;20025;-72
2021/03/04 04:23:51;;;;;;;44.80;24.95;;;7.30;63.00;;;;;;5033636;28;20490;-72
2021/03/04 04:26:17;;;;;;;44.40;24.27;;;7.30;63.10;;;;;;5032719;28;20037;-72
2021/03/04 04:28:44;;;;;;;42.83;23.42;;;7.30;63.20;;;;;;5034052;28;20045;-72
2021/03/04 04:31:10;;;;;;;37.67;20.25;;;7.30;63.20;;;;;;5034083;28;20099;-71
2021/03/04 04:33:36;;;;;;;33.22;18.67;;;7.30;63.20;;;;;;5032082;28;20017;-72
2021/03/04 04:36:02;;;;;;;39.80;22.48;;;7.30;63.10;;;;;;5014204;28;20533;-72
2021/03/04 04:38:28;;;;;;;34.95;20.02;;;7.40;63.20;;;;;;5014159;28;20021;-72
2021/03/04 04:40:54;;;;;;;35.88;20.80;;;7.40;63.20;;;;;;5014070;28;20766;-72
2021/03/04 04:43:20;;;;;;;42.10;23.58;;;7.40;63.20;;;;;;5033084;28;20069;-73
2021/03/04 04:45:47;;;;;;;36.72;20.95;;;7.40;63.20;;;;;;5033331;28;20021;-72
2021/03/04 04:48:12;;;;;;;37.97;21.33;;;7.40;63.10;;;;;;5015745;28;20067;-72
2021/03/04 04:50:38;;;;;;;42.05;21.17;;;7.40;63.00;;;;;;5033393;28;20025;-72
2021/03/04 04:53:04;;;;;;;41.28;22.30;;;7.50;63.00;;;;;;5033383;28;20025;-73
2021/03/04 04:55:30;;;;;;;40.40;21.75;;;7.40;63.00;;;;;;5033023;28;20026;-72
2021/03/04 04:57:56;;;;;;;43.60;23.88;;;7.40;63.00;;;;;;5019970;28;20041;-73
2021/03/04 05:00:22;;;;;;;44.17;24.52;;;7.50;63.00;;;;;;5029883;28;20037;-73
2021/03/04 05:02:48;;;;;;;40.00;21.98;;;7.50;63.10;;;;;;5015466;28;20106;-72
2021/03/04 05:05:14;;;;;;;44.13;25.20;;;7.50;63.00;;;;;;5015616;28;20432;-73
2021/03/04 05:07:39;;;;;;;37.45;21.27;;;7.50;63.00;;;;;;5015565;28;20402;-72
2021/03/04 05:10:09;;;;;;;47.90;23.48;;;7.50;62.80;;;;;;5033272;28;20025;-73
2021/03/04 05:12:35;;;;;;;45.25;24.25;;;7.50;62.80;;;;;;5033274;28;20029;-73
2021/03/04 05:15:03;;;;;;;47.70;26.10;;;7.50;62.90;;;;;;5032999;28;20559;-73
2021/03/04 05:17:29;;;;;;;45.92;26.02;;;7.50;62.90;;;;;;5020132;28;20368;-73
2021/03/04 05:19:55;;;;;;;45.40;25.75;;;7.50;63.00;;;;;;5031771;28;20035;-72
2021/03/04 05:22:20;;;;;;;50.78;27.92;;;7.50;63.10;;;;;;5032883;28;20029;-73
2021/03/04 05:24:46;;;;;;;55.60;26.58;;;7.50;63.20;;;;;;5032667;28;20032;-73
2021/03/04 05:27:12;;;;;;;44.20;25.40;;;7.50;63.20;;;;;;5032962;28;20025;-73
2021/03/04 05:29:38;;;;;;;41.58;24.25;;;7.50;63.20;;;;;;5021848;28;20032;-73
2021/03/04 05:32:04;;;;;;;48.60;26.10;;;7.50;63.20;;;;;;5018053;28;20079;-73
2021/03/04 05:34:30;;;;;;;48.90;22.85;;;7.50;63.10;;;;;;5032381;28;20068;-73
2021/03/04 05:36:55;;;;;;;41.83;23.98;;;7.50;63.00;;;;;;5031408;28;20060;-73
2021/03/04 05:39:21;;;;;;;41.05;22.80;;;7.50;62.90;;;;;;5032677;28;20037;-71
2021/03/04 05:41:47;;;;;;;39.90;22.63;;;7.40;62.90;;;;;;5032556;28;20075;-73
2021/03/04 05:44:15;;;;;;;40.30;21.30;;;7.40;63.00;;;;;;5032345;28;20143;-72
2021/03/04 05:46:45;;;;;;;40.67;23.15;;;7.40;63.20;;;;;;5032700;28;20018;-72
2021/03/04 05:49:12;;;;;;;41.10;22.52;;;7.40;63.30;;;;;;5032665;28;20044;-73
2021/03/04 05:51:43;;;;;;;44.17;23.83;;;7.40;63.50;;;;;;5032452;28;20418;-73
2021/03/04 05:54:14;;;;;;;40.20;22.48;;;7.50;63.70;;;;;;5026070;28;20371;-73
2021/03/04 05:56:43;;;;;;;39.80;22.10;;;7.50;63.80;;;;;;5013152;28;20045;-73
2021/03/04 05:59:09;;;;;;;33.28;19.85;;;7.50;63.70;;;;;;5018170;28;20073;-74
2021/03/04 06:01:35;;;;;;;33.80;19.75;;;7.60;63.80;;;;;;5032357;28;20026;-73
2021/03/04 06:04:02;;;;;;;36.08;20.73;;;7.60;63.70;;;;;;5031957;28;20038;-73
2021/03/04 06:06:27;;;;;;;33.60;20.73;;;7.60;63.70;;;;;;5032231;28;20025;-73
2021/03/04 06:08:53;;;;;;;32.97;19.38;;;7.70;63.70;;;;;;5030845;28;20036;-73
2021/03/04 06:11:19;;;;;;;33.45;19.63;;;7.70;63.70;;;;;;5032095;28;20381;-73
2021/03/04 06:13:46;;;;;;;39.75;19.65;;;7.80;63.70;;;;;;5031357;28;20382;-73
2021/03/04 06:16:12;;;;;;;36.58;20.42;;;7.80;63.60;;;;;;5031898;28;20037;-73
2021/03/04 06:18:42;;;;;;;46.17;25.23;;;7.90;63.60;;;;;;5031920;28;20548;-73
2021/03/04 06:21:24;;;;;;;46.30;23.52;;;7.90;63.50;;;;;;5014116;28;20028;-73
2021/03/04 06:23:52;;;;;;;43.10;24.05;;;8.00;63.40;;;;;;5031513;28;20087;-73
2021/03/04 06:26:28;;;;;;;42.35;23.63;;;8.00;63.30;;;;;;5029271;28;20029;-73
2021/03/04 06:28:55;;;;;;;50.13;25.95;;;8.00;63.20;;;;;;5011953;28;20076;-73
2021/03/04 06:31:21;;;;;;;38.45;23.88;;;8.00;63.10;;;;;;5012168;28;20014;-73
2021/03/04 06:33:47;;;;;;;44.88;21.67;;;8.10;63.20;;;;;;5016170;28;20370;-73
2021/03/04 06:36:15;;;;;;;33.85;18.98;;;8.10;63.20;;;;;;5031802;28;20033;-73
2021/03/04 06:38:41;;;;;;;38.45;19.77;;;8.10;63.20;;;;;;5031830;28;20096;-73
2021/03/04 06:41:20;;;;;;;41.83;20.67;;;8.20;63.20;;;;;;5031708;28;20530;-73
2021/03/04 06:43:46;;;;;;;36.58;20.75;;;8.20;63.30;;;;;;5031380;28;20033;-73
2021/03/04 06:46:13;;;;;;;50.88;26.55;;;8.30;63.30;;;;;;5031945;28;20029;-73
2021/03/04 06:48:51;;;;;;;37.50;21.02;;;8.30;63.30;;;;;;5031991;28;20032;-73
2021/03/04 06:51:17;;;;;;;56.80;24.75;;;8.40;63.20;;;;;;5031675;28;20014;-73
2021/03/04 06:53:50;;;;;;;47.65;25.27;;;8.50;63.10;;;;;;5031364;28;20425;-73
2021/03/04 06:56:27;;;;;;;60.22;26.80;;;8.50;62.90;;;;;;5013031;28;20030;-73
2021/03/04 06:58:59;;;;;;;39.97;23.25;;;8.50;62.60;;;;;;5011847;28;20136;-73
2021/03/04 07:01:25;;;;;;;40.13;23.35;;;8.50;62.30;;;;;;5011651;28;20053;-73
2021/03/04 07:03:54;;;;;;;38.45;22.77;;;8.60;62.30;;;;;;5019104;28;20120;-73
2021/03/04 07:06:25;;;;;;;34.55;19.70;;;8.60;62.20;;;;;;5031462;28;20033;-73
2021/03/04 07:08:52;;;;;;;44.13;21.80;;;8.60;62.10;;;;;;5031524;28;20014;-73
2021/03/04 07:11:24;;;;;;;38.60;20.77;;;8.70;62.20;;;;;;5031330;28;20478;-73
2021/03/04 07:13:51;;;;;;;44.53;23.90;;;8.70;62.20;;;;;;5031201;28;20029;-73
2021/03/04 07:16:37;;;;;;;45.10;23.80;;;8.80;62.40;;;;;;5031710;28;20024;-73
2021/03/04 07:19:04;;;;;;;38.88;21.77;;;8.90;62.40;;;;;;5030092;28;20051;-73
2021/03/04 07:21:44;;;;;;;34.63;20.55;;;9.00;62.20;;;;;;5031355;28;20029;-73
2021/03/04 07:24:11;;;;;;;36.53;19.70;;;9.00;61.90;;;;;;5023721;28;20395;-73
2021/03/04 07:26:37;;;;;;;36.58;20.30;;;9.10;61.80;;;;;;5030673;28;20467;-73
2021/03/04 07:29:04;;;;;;;36.35;21.40;;;9.20;61.80;;;;;;5031183;28;20033;-73
2021/03/04 07:31:30;;;;;;;40.65;21.92;;;9.30;61.50;;;;;;5031410;28;20479;-73
2021/03/04 07:33:58;;;;;;;37.08;20.40;;;9.30;61.20;;;;;;5030261;28;20030;-73
2021/03/04 07:36:24;;;;;;;38.08;22.17;;;9.40;61.10;;;;;;5031059;28;20047;-73
2021/03/04 07:38:58;;;;;;;39.20;23.20;;;9.40;60.90;;;;;;5031290;28;20029;-73
2021/03/04 07:41:39;;;;;;;40.10;21.92;;;9.40;60.40;;;;;;5031284;28;20033;-73
2021/03/04 07:44:06;;;;;;;38.80;22.90;;;9.50;60.30;;;;;;5030805;28;20033;-74
2021/03/04 07:46:37;;;;;;;35.42;21.13;;;9.60;61.00;;;;;;5030999;28;20053;-73
2021/03/04 07:49:05;;;;;;;38.47;22.20;;;9.60;60.10;;;;;;5031168;28;20029;-73
2021/03/04 07:51:48;;;;;;;39.47;24.10;;;9.70;60.00;;;;;;5031199;28;20056;-73
2021/03/04 07:54:25;;;;;;;40.38;22.10;;;9.70;59.70;;;;;;5033135;28;20029;-73
2021/03/04 07:57:01;;;;;;;40.30;20.15;;;9.70;59.60;;;;;;5018779;28;20030;-73
2021/03/04 07:59:27;;;;;;;40.95;21.00;;;9.80;59.60;;;;;;5010036;28;20417;-73
2021/03/04 08:01:58;;;;;;;47.10;21.08;;;9.90;59.70;;;;;;5010034;28;20037;-73
2021/03/04 08:04:30;;;;;;;37.60;21.23;;;9.90;59.70;;;;;;5014563;28;20022;-73
2021/03/04 08:06:57;;;;;;;40.78;22.23;;;10.00;59.70;;;;;;5014625;28;20018;-73
2021/03/04 08:09:43;;;;;;;49.53;22.40;;;10.10;59.60;;;;;;5013409;28;20053;-73
2021/03/04 08:12:11;;;;;;;50.70;22.13;;;10.20;59.50;;;;;;5014377;28;20049;-73
2021/03/04 08:14:39;;;;;;;73.40;26.77;;;10.30;59.60;;;;;;5014315;28;20037;-73
2021/03/04 08:17:06;;;;;;;84.28;29.70;;;10.40;59.20;;;;;;5006584;28;20066;-73
2021/03/04 08:19:33;;;;;;;50.72;25.15;;;10.40;58.70;;;;;;4993497;28;20069;-73
2021/03/04 08:22:08;;;;;;;54.53;25.02;;;10.50;58.10;;;;;;4994703;28;20109;-73
2021/03/04 08:24:36;;;;;;;56.40;24.15;;;10.60;57.90;;;;;;5010282;28;20037;-73
2021/03/04 08:27:03;;;;;;;104.72;32.22;;;10.60;57.70;;;;;;5012263;28;20088;-73
2021/03/04 08:29:29;;;;;;;47.42;23.75;;;10.70;57.50;;;;;;5012885;28;20022;-73
2021/03/04 08:31:59;;;;;;;59.08;25.10;;;10.70;57.20;;;;;;5014288;28;20026;-73
2021/03/04 08:34:37;;;;;;;74.47;27.75;;;10.70;56.70;;;;;;5014007;28;20072;-73
2021/03/04 08:37:05;;;;;;;86.82;28.50;;;10.70;56.70;;;;;;5013917;28;20040;-74
2021/03/04 08:39:34;;;;;;;60.30;25.27;;;10.70;56.60;;;;;;5014017;28;20030;-73
2021/03/04 08:42:08;;;;;;;67.95;27.80;;;10.80;56.70;;;;;;5012640;28;20759;-73
2021/03/04 08:44:34;;;;;;;;;;;10.80;56.80;;;;;;5014030;28;20018;-74
2021/03/04 08:47:00;;;;;;;38.47;20.55;;;10.90;57.50;;;;;;5014003;28;19905;-73
2021/03/04 08:49:25;;;;;;;38.67;21.30;;;11.00;57.00;;;;;;5013528;28;20113;-73
2021/03/04 08:51:52;;;;;;;39.13;20.75;;;11.00;56.80;;;;;;5014004;28;20104;-72
2021/03/04 08:54:26;;;;;;;43.58;22.70;;;11.10;56.70;;;;;;5013463;28;20029;-73
2021/03/04 08:57:05;;;;;;;40.67;20.67;;;11.20;56.50;;;;;;5013517;28;20022;-74
2021/03/04 08:59:31;;;;;;;34.95;19.77;;;11.30;56.80;;;;;;5008340;28;20470;-72
2021/03/04 09:01:59;;;;;;;42.28;20.67;;;11.40;57.10;;;;;;5012539;28;20032;-75
2021/03/04 09:04:28;;;;;;;44.63;19.83;;;11.50;57.00;;;;;;5027029;28;20482;-74
2021/03/04 09:06:55;;;;;;;36.35;21.38;;;11.60;56.90;;;;;;5033279;28;20029;-72
2021/03/04 09:09:26;;;;;;;40.53;22.73;;;11.70;56.60;;;;;;5034064;28;20029;-72
2021/03/04 09:11:53;;;;;;;40.47;22.77;;;11.80;56.00;;;;;;5033929;28;20471;-72
2021/03/04 09:14:25;;;;;;;40.47;22.30;;;11.90;55.80;;;;;;5041160;28;20038;-73
2021/03/04 09:16:51;;;;;;;39.25;21.92;;;12.00;55.80;;;;;;5033882;28;20025;-73
2021/03/04 09:19:28;;;;;;;51.60;23.83;;;12.10;55.70;;;;;;5033982;28;20536;-72
2021/03/04 09:21:54;;;;;;;50.72;24.77;;;12.20;55.60;;;;;;5032739;28;20042;-73
2021/03/04 09:24:21;;;;;;;46.63;25.60;;;12.30;55.40;;;;;;5032921;28;20025;-73
2021/03/04 09:26:47;;;;;;;53.42;27.70;;;12.50;55.20;;;;;;5033817;28;20022;-73
2021/03/04 09:29:14;;;;;;;49.85;24.10;;;12.60;55.20;;;;;;5025265;28;20040;-73
2021/03/04 09:31:53;;;;;;;51.13;24.30;;;12.70;55.20;;;;;;5033508;28;20541;-73
2021/03/04 09:34:29;;;;;;;47.67;24.92;;;12.80;54.90;;;;;;5033432;28;20116;-73
2021/03/04 09:37:09;;;;;;;40.92;23.90;;;12.80;54.60;;;;;;5033534;28;20032;-73
2021/03/04 09:39:40;;;;;;;40.83;22.50;;;12.90;54.60;;;;;;5015875;28;20538;-73
2021/03/04 09:42:07;;;;;;;53.63;23.83;;;13.00;54.60;;;;;;5033424;28;20025;-73
2021/03/04 09:44:44;;;;;;;48.63;23.45;;;13.10;54.10;;;;;;5032513;28;20025;-73
2021/03/04 09:47:19;;;;;;;59.47;27.42;;;13.20;54.30;;;;;;5033271;28;20265;-73
2021/03/04 09:49:45;;;;;;;55.42;26.40;;;13.30;53.70;;;;;;5032467;28;20020;-73
2021/03/04 09:52:19;;;;;;;78.18;28.77;;;13.30;53.30;;;;;;5015465;28;20017;-73
2021/03/04 09:54:44;;;;;;;54.47;27.73;;;13.30;53.10;;;;;;5033233;28;20026;-73
2021/03/04 09:57:10;;;;;;;66.38;28.67;;;13.40;53.20;;;;;;5033232;28;20056;-73
2021/03/04 09:59:53;;;;;;;53.40;27.83;;;13.40;53.20;;;;;;5015010;28;20055;-73
2021/03/04 10:02:20;;;;;;;65.13;31.83;;;13.50;53.10;;;;;;5033081;28;20057;-73
2021/03/04 10:04:57;;;;;;;56.60;25.80;;;13.60;52.50;;;;;;5031948;28;20025;-73
2021/03/04 10:07:27;;;;;;;49.20;28.08;;;13.70;52.70;;;;;;5014852;28;20517;-73
2021/03/04 10:09:54;;;;;;;37.83;23.42;;;13.70;52.10;;;;;;5032633;28;20022;-73
2021/03/04 10:12:21;;;;;;;55.55;26.75;;;13.70;52.20;;;;;;5032993;28;20487;-74
2021/03/04 10:14:49;;;;;;;38.05;22.75;;;13.80;51.70;;;;;;5013895;28;20022;-73
2021/03/04 10:17:15;;;;;;;30.63;19.42;;;13.70;51.20;;;;;;5031756;28;20108;-73
2021/03/04 10:19:41;;;;;;;39.78;21.13;;;13.70;51.30;;;;;;5032493;28;20022;-74
2021/03/04 10:22:08;;;;;;;40.40;20.30;;;13.70;50.60;;;;;;5032705;28;20099;-73
2021/03/04 10:24:35;;;;;;;33.83;17.48;;;13.70;50.80;;;;;;5031600;28;20033;-73
2021/03/04 10:27:03;;;;;;;33.28;15.82;;;13.80;50.80;;;;;;5049142;28;20029;-73
2021/03/04 10:29:30;;;;;;;34.97;17.52;;;13.90;51.60;;;;;;5012974;28;20021;-73
2021/03/04 10:31:56;;;;;;;35.60;17.58;;;14.00;51.10;;;;;;5040753;28;20013;-72
2021/03/04 10:34:23;;;;;;;26.85;16.35;;;14.20;50.60;;;;;;5035284;28;20025;-73
2021/03/04 10:36:49;;;;;;;27.85;16.20;;;14.40;50.70;;;;;;5047475;28;20467;-73
2021/03/04 10:39:16;;;;;;;30.92;16.25;;;14.60;49.90;;;;;;5017233;28;20470;-73
2021/03/04 10:41:43;;;;;;;40.78;16.65;;;14.70;49.40;;;;;;5044843;28;20060;-73
2021/03/04 10:44:10;;;;;;;33.95;16.50;;;14.90;49.00;;;;;;5021730;28;20025;-73
2021/03/04 10:46:36;;;;;;;27.70;16.05;;;15.00;48.40;;;;;;5034924;28;20494;-73
2021/03/04 10:49:03;;;;;;;26.67;15.38;;;15.10;48.30;;;;;;5032962;28;20049;-73
2021/03/04 10:51:29;;;;;;;25.70;14.85;;;15.20;47.70;;;;;;5046251;28;20050;-73
2021/03/04 10:53:55;;;;;;;27.85;15.80;;;15.30;47.30;;;;;;5043541;28;20024;-73
2021/03/04 10:56:21;;;;;;;28.23;16.80;;;15.30;46.60;;;;;;5030628;28;20017;-73
2021/03/04 10:58:47;;;;;;;39.35;15.95;;;15.30;46.30;;;;;;5032767;28;20050;-73
2021/03/04 11:01:13;;;;;;;27.38;14.65;;;15.30;46.20;;;;;;5037730;28;20112;-73
2021/03/04 11:03:39;;;;;;;30.55;15.75;;;15.30;46.50;;;;;;5045207;28;20119;-73
2021/03/04 11:06:06;;;;;;;27.02;14.40;;;15.40;46.60;;;;;;5047546;28;20399;-73
2021/03/04 11:08:32;;;;;;;26.60;14.18;;;15.40;46.50;;;;;;5036915;28;20025;-73
2021/03/04 11:10:58;;;;;;;45.83;16.42;;;15.50;46.50;;;;;;5024785;28;20028;-73
2021/03/04 11:13:24;;;;;;;29.33;15.32;;;15.50;45.90;;;;;;5037178;28;20025;-73
2021/03/04 11:15:50;;;;;;;30.70;16.40;;;15.60;46.30;;;;;;5040177;28;20358;-73
2021/03/04 11:18:18;;;;;;;26.77;16.55;;;15.70;46.30;;;;;;5034990;28;20030;-73
2021/03/04 11:20:44;;;;;;;24.63;15.15;;;15.80;45.30;;;;;;5030858;28;20025;-73
2021/03/04 11:23:09;;;;;;;28.23;15.27;;;15.80;45.20;;;;;;5031540;28;20056;-73
2021/03/04 11:25:35;;;;;;;24.70;15.40;;;15.90;44.90;;;;;;5031195;28;20036;-73
2021/03/04 11:28:01;;;;;;;24.85;16.65;;;15.90;44.40;;;;;;5032981;28;20111;-73
2021/03/04 11:30:28;;;;;;;29.75;16.67;;;15.90;44.30;;;;;;5051601;28;20536;-73
2021/03/04 11:32:55;;;;;;;25.55;15.60;;;15.90;43.90;;;;;;5038795;28;20378;-73
2021/03/04 11:35:27;;;;;;;23.27;15.07;;;15.90;43.80;;;;;;5041914;28;20047;-73
2021/03/04 11:37:53;;;;;;;26.67;14.48;;;15.80;44.20;;;;;;5050969;28;20035;-73
2021/03/04 11:40:19;;;;;;;29.33;14.50;;;15.80;44.30;;;;;;5041172;28;20041;-73
2021/03/04 11:42:45;;;;;;;27.48;16.83;;;15.80;44.60;;;;;;5047228;28;20026;-75
2021/03/04 11:45:11;;;;;;;27.15;15.63;;;15.80;43.90;;;;;;5034129;28;20451;-77
2021/03/04 11:47:37;;;;;;;28.05;16.52;;;15.70;44.20;;;;;;5036316;28;20022;-77
2021/03/04 11:50:03;;;;;;;31.73;16.60;;;15.70;44.50;;;;;;5035414;28;20101;-76
2021/03/04 11:52:29;;;;;;;26.27;15.85;;;15.70;44.70;;;;;;5050793;28;20470;-77
2021/03/04 11:54:55;;;;;;;24.90;16.30;;;15.70;44.50;;;;;;5019745;28;20148;-77
2021/03/04 11:57:22;;;;;;;21.40;14.52;;;15.60;44.20;;;;;;5031611;28;20032;-77
2021/03/04 11:59:48;;;;;;;23.80;14.48;;;15.60;44.90;;;;;;5043774;28;20047;-77
2021/03/04 12:02:13;;;;;;;30.23;15.63;;;15.60;45.00;;;;;;5045589;28;20029;-77
2021/03/04 12:04:39;;;;;;;22.42;14.10;;;15.60;45.00;;;;;;5035638;28;20045;-77
2021/03/04 12:07:05;;;;;;;22.42;14.00;;;15.60;45.20;;;;;;5036238;28;20060;-77
2021/03/04 12:09:31;;;;;;;25.98;15.20;;;15.70;45.50;;;;;;5026200;28;20448;-77
2021/03/04 12:11:57;;;;;;;22.35;14.57;;;15.80;45.70;;;;;;5050009;28;20107;-77
2021/03/04 12:14:22;;;;;;;22.25;14.27;;;15.80;45.70;;;;;;5039589;28;20391;-76
2021/03/04 12:16:48;;;;;;;25.33;16.52;;;15.90;45.60;;;;;;5021468;28;20394;-77
2021/03/04 12:19:15;;;;;;;24.23;16.48;;;16.00;44.90;;;;;;5033349;28;20037;-77
2021/03/04 12:21:40;;;;;;;27.48;17.52;;;16.10;44.80;;;;;;5033837;28;20033;-77
2021/03/04 12:24:07;;;;;;;30.10;17.15;;;16.10;44.50;;;;;;5046325;28;20471;-77
2021/03/04 12:26:33;;;;;;;41.85;17.95;;;16.10;44.40;;;;;;5037652;28;20452;-77
2021/03/04 12:28:58;;;;;;;28.92;16.60;;;16.10;44.70;;;;;;5027076;28;20053;-77
2021/03/04 12:31:24;;;;;;;27.85;16.70;;;16.20;44.80;;;;;;5035283;28;20528;-78
2021/03/04 12:33:50;;;;;;;32.53;18.15;;;16.30;44.40;;;;;;5045291;28;20029;-77
2021/03/04 12:36:16;;;;;;;38.40;20.30;;;16.30;44.10;;;;;;5041830;28;20022;-76
2021/03/04 12:38:42;;;;;;;40.40;17.45;;;16.30;44.00;;;;;;5035181;28;20075;-77
2021/03/04 12:41:08;;;;;;;28.00;17.60;;;16.30;43.90;;;;;;5035933;28;20040;-77